Time;durP1;ratioP1;P1;durP2;ratioP2;P2;SDS_P1;SDS_P2;PMS_P1;PMS_P2;Temp;Humidity;BMP_temperature;BMP_pressure;BME280_temperature;BME280_humidity;BME280_pressure;Samples;Min_cycle;Max_cycle;Signal;HPM_P1;HPM_P2
2021/11/01 00:02:05;;;;;;;38.55;19.30;;;;;;;4.99;74.52;101025.48;1799454;80;21743;-65
2021/11/01 00:04:34;;;;;;;37.70;20.12;;;;;;;4.97;74.69;101030.70;1799750;80;21529;-65
2021/11/01 00:07:05;;;;;;;43.90;23.20;;;;;;;4.93;74.67;101025.20;1799615;80;21316;-64
2021/11/01 00:09:34;;;;;;;40.38;22.65;;;;;;;4.89;74.78;101027.36;1799541;80;21233;-64
2021/11/01 00:12:04;;;;;;;49.85;24.20;;;;;;;4.86;74.94;101021.36;1799437;80;21687;-66
2021/11/01 00:14:33;;;;;;;43.30;22.15;;;;;;;4.89;75.04;101021.07;1794912;80;21200;-64
2021/11/01 00:17:03;;;;;;;40.73;21.87;;;;;;;4.89;75.02;101026.00;1793598;80;21240;-64
2021/11/01 00:19:33;;;;;;;41.73;21.73;;;;;;;4.89;75.01;101021.07;1793751;80;21561;-65
2021/11/01 00:22:02;;;;;;;40.67;21.37;;;;;;;4.88;75.05;101027.00;1793621;80;21157;-64
2021/11/01 00:24:31;;;;;;;37.55;20.25;;;;;;;4.86;75.07;101017.29;1793571;80;21115;-65
2021/11/01 00:27:01;;;;;;;37.70;21.15;;;;;;;4.87;75.11;101018.50;1793678;80;21268;-65
2021/11/01 00:29:31;;;;;;;39.53;20.68;;;;;;;4.90;74.97;101016.00;1793878;80;21584;-66
2021/11/01 00:32:01;;;;;;;35.98;19.62;;;;;;;4.93;74.89;101017.06;1793920;80;21162;-64
2021/11/01 00:34:30;;;;;;;39.18;21.37;;;;;;;4.97;74.77;101011.19;1793630;80;21603;-65
2021/11/01 00:36:59;;;;;;;41.40;21.45;;;;;;;4.97;74.62;101010.34;1793630;80;21126;-64
2021/11/01 00:39:28;;;;;;;35.23;20.30;;;;;;;4.94;74.46;101010.63;1793716;80;21549;-64
2021/11/01 00:41:57;;;;;;;43.70;21.95;;;;;;;4.91;74.37;101004.13;1793904;80;21153;-64
2021/11/01 00:44:26;;;;;;;38.60;19.92;;;;;;;4.86;74.39;101001.86;1793878;80;21647;-64
2021/11/01 00:46:58;;;;;;;41.55;19.70;;;;;;;4.88;74.31;101001.71;1793782;80;21536;-64
2021/11/01 00:49:27;;;;;;;36.88;17.85;;;;;;;4.89;74.29;100996.63;1793782;80;21599;-65
2021/11/01 00:51:58;;;;;;;40.83;21.30;;;;;;;4.90;74.17;100991.06;1793606;80;21263;-64
2021/11/01 00:54:27;;;;;;;38.65;20.68;;;;;;;4.89;74.18;100994.77;1793581;80;21602;-64
2021/11/01 00:56:56;;;;;;;40.05;21.15;;;;;;;4.86;74.14;100993.71;1793861;80;21553;-64
2021/11/01 00:59:25;;;;;;;39.05;20.43;;;;;;;4.84;74.21;100986.22;1793698;80;21623;-64
2021/11/01 01:01:53;;;;;;;41.63;19.95;;;;;;;4.86;74.17;100990.14;1793622;80;21541;-67
2021/11/01 01:04:27;;;;;;;34.25;18.90;;;;;;;4.86;74.03;100990.14;1793778;80;21583;-64
2021/11/01 01:06:53;;;;;;;34.80;19.10;;;;;;;4.82;73.91;100988.22;1793941;80;21623;-64
2021/11/01 01:09:22;;;;;;;37.10;19.75;;;;;;;4.78;73.92;100994.44;1793590;80;21090;-64
2021/11/01 01:11:51;;;;;;;40.17;20.20;;;;;;;4.76;73.89;100986.95;1793784;80;21641;-66
2021/11/01 01:14:26;;;;;;;41.18;20.43;;;;;;;4.71;73.85;100986.53;1793446;80;21150;-63
2021/11/01 01:16:52;;;;;;;38.88;19.82;;;;;;;4.69;73.85;100981.75;1793453;80;21557;-65
2021/11/01 01:19:23;;;;;;;36.08;20.00;;;;;;;4.68;73.86;100974.61;1793684;80;21552;-65
2021/11/01 01:24:38;;;;;;;34.70;20.82;;;;;;;4.66;73.90;100975.25;1793970;80;21581;-65
2021/11/01 01:27:08;;;;;;;36.83;19.90;;;;;;;4.65;74.03;100981.68;1793583;80;21593;-65
2021/11/01 01:29:38;;;;;;;38.20;20.65;;;;;;;4.66;73.99;100974.39;1793605;78;21102;-64
2021/11/01 01:32:08;;;;;;;42.13;20.95;;;;;;;4.64;73.94;100963.69;1793849;80;21611;-64
2021/11/01 01:34:36;;;;;;;41.55;21.60;;;;;;;4.64;73.84;100963.69;1794059;80;21114;-63
2021/11/01 01:37:05;;;;;;;44.40;23.67;;;;;;;4.62;73.77;100960.26;1793756;80;21603;-67
2021/11/01 01:39:34;;;;;;;41.25;22.90;;;;;;;4.59;73.80;100959.69;1793739;80;21581;-65
2021/11/01 01:42:04;;;;;;;42.75;23.00;;;;;;;4.56;73.87;100957.27;1793524;80;21269;-64
2021/11/01 01:44:33;;;;;;;46.77;22.93;;;;;;;4.53;73.85;100959.74;1793553;80;21118;-64
2021/11/01 01:47:01;;;;;;;45.85;22.62;;;;;;;4.48;73.86;100955.75;1793670;80;21680;-65
2021/11/01 01:49:30;;;;;;;42.13;22.25;;;;;;;4.47;73.82;100958.96;1793799;80;21110;-65
2021/11/01 01:51:59;;;;;;;43.87;23.38;;;;;;;4.44;73.91;100947.91;1793547;80;21260;-65
2021/11/01 01:54:28;;;;;;;40.67;22.87;;;;;;;4.43;73.99;100948.90;1793743;80;21144;-64
2021/11/01 01:56:57;;;;;;;45.98;23.20;;;;;;;4.40;74.02;100947.84;1793858;80;21574;-65
2021/11/01 01:59:26;;;;;;;45.25;23.45;;;;;;;4.38;74.12;100949.84;1793697;80;21563;-65
2021/11/01 02:01:55;;;;;;;43.40;23.40;;;;;;;4.35;74.07;100944.70;1793541;80;21121;-66
2021/11/01 02:04:26;;;;;;;45.30;22.85;;;;;;;4.35;74.18;100946.55;1793768;80;21678;-65
2021/11/01 02:07:15;;;;;;;46.02;22.93;;;;;;;4.36;74.24;100941.48;1793702;80;21086;-65
2021/11/01 02:10:11;;;;;;;46.18;23.25;;;;;;;4.39;74.14;100946.13;1793948;80;21118;-65
2021/11/01 02:12:53;;;;;;;46.08;23.42;;;;;;;4.41;74.14;100941.91;1793638;80;21089;-65
2021/11/01 02:15:27;;;;;;;53.17;24.45;;;;;;;4.38;74.11;100942.20;1793362;79;21161;-65
2021/11/01 02:17:57;;;;;;;45.67;23.55;;;;;;;4.36;74.20;100941.48;1793669;80;21485;-65
2021/11/01 02:20:39;;;;;;;45.10;24.30;;;;;;;4.37;74.27;100935.91;1793552;80;21150;-64
2021/11/01 02:23:46;;;;;;;42.80;22.60;;;;;;;4.38;74.21;100938.13;1793788;80;21582;-66
2021/11/01 02:26:17;;;;;;;45.80;23.62;;;;;;;4.34;74.11;100937.56;1793553;80;21097;-65
2021/11/01 02:28:47;;;;;;;45.28;22.22;;;;;;;4.28;74.10;100928.64;1793865;80;21585;-65
2021/11/01 02:31:20;;;;;;;40.20;20.05;;;;;;;4.25;74.17;100926.72;1793557;80;21864;-64
2021/11/01 02:33:49;;;;;;;43.52;21.35;;;;;;;4.21;74.20;100933.44;1793518;80;21118;-65
2021/11/01 02:36:18;;;;;;;45.10;21.60;;;;;;;4.16;74.34;100928.94;1793772;80;21677;-65
2021/11/01 02:38:50;;;;;;;39.65;20.55;;;;;;;4.16;74.47;100927.08;1793534;80;21153;-65
2021/11/01 02:41:27;;;;;;;39.60;20.77;;;;;;;4.16;74.40;100918.09;1737023;80;21543;-64
2021/11/01 02:44:00;;;;;;;41.92;21.93;;;;;;;4.17;74.49;100925.23;1793579;80;21647;-65
2021/11/01 02:46:28;;;;;;;41.60;21.80;;;;;;;4.21;74.54;100921.23;1793523;80;21154;-63
2021/11/01 02:48:57;;;;;;;39.95;21.30;;;;;;;4.20;74.46;100918.16;1793630;80;21169;-64
2021/11/01 02:51:28;;;;;;;38.73;19.73;;;;;;;4.22;74.39;100920.23;1793846;80;21622;-65
2021/11/01 02:53:58;;;;;;;42.20;21.55;;;;;;;4.20;74.32;100922.23;1793704;80;21118;-65
2021/11/01 02:56:26;;;;;;;41.02;20.70;;;;;;;4.17;74.19;100917.09;1793373;80;21193;-65
2021/11/01 02:58:56;;;;;;;40.45;20.68;;;;;;;4.13;74.11;100920.09;1793832;80;21675;-66
2021/11/01 03:01:24;;;;;;;42.48;22.25;;;;;;;4.11;74.11;100915.31;1793548;80;21169;-65
2021/11/01 03:03:55;;;;;;;48.60;22.87;;;;;;;4.08;74.12;100922.38;1793648;80;21321;-65
2021/11/01 03:06:28;;;;;;;43.92;22.60;;;;;;;4.04;74.18;100911.96;1793756;80;21589;-67
2021/11/01 03:08:58;;;;;;;47.10;23.50;;;;;;;4.02;74.32;100912.61;1793926;80;21296;-65
2021/11/01 03:11:27;;;;;;;50.20;23.35;;;;;;;4.01;74.55;100908.18;1793709;80;21599;-65
2021/11/01 03:13:56;;;;;;;49.23;22.95;;;;;;;4.00;74.74;100914.10;1791833;80;21577;-64
2021/11/01 03:16:25;;;;;;;51.33;23.25;;;;;;;4.03;74.87;100910.25;1779585;80;21288;-64
2021/11/01 03:19:03;;;;;;;49.80;23.70;;;;;;;4.05;74.91;100915.88;1779663;80;21514;-65
2021/11/01 03:21:34;;;;;;;51.40;25.32;;;;;;;4.05;75.07;100909.11;1779366;80;21221;-66
2021/11/01 03:24:02;;;;;;;49.83;23.15;;;;;;;4.06;75.22;100912.17;1779385;80;21154;-66
2021/11/01 03:26:31;;;;;;;50.78;24.18;;;;;;;4.07;75.13;100908.96;1779912;80;21126;-63
2021/11/01 03:29:02;;;;;;;49.50;23.55;;;;;;;4.07;75.06;100908.46;1779662;80;21561;-64
2021/11/01 03:31:32;;;;;;;51.65;23.67;;;;;;;4.06;74.99;100898.62;1779331;80;21193;-65
2021/11/01 03:34:02;;;;;;;47.80;22.98;;;;;;;4.04;74.92;100901.12;1779525;80;21182;-65
2021/11/01 03:36:33;;;;;;;50.67;24.77;;;;;;;4.03;74.87;100899.41;1779596;80;21130;-65
2021/11/01 03:39:03;;;;;;;50.33;25.55;;;;;;;4.02;74.97;100896.34;1779440;80;21244;-65
2021/11/01 03:41:34;;;;;;;46.00;24.18;;;;;;;4.02;75.07;100894.48;1779618;80;21611;-65
2021/11/01 03:44:15;;;;;;;47.58;23.12;;;;;;;4.01;75.12;100898.69;1779551;80;21114;-64
2021/11/01 03:46:59;;;;;;;52.98;24.00;;;;;;;4.01;75.08;100895.48;1778002;80;21565;-63
2021/11/01 03:49:08;;;;;;;47.45;23.98;;;;;;;4.00;75.05;100892.41;1772780;80;21106;-66
2021/11/01 03:54:16;;;;;;;45.60;23.42;;;;;;;3.92;75.10;100889.56;1779896;80;21533;-65
2021/11/01 03:56:44;;;;;;;47.38;23.83;;;;;;;3.92;75.26;100892.27;1779530;80;21090;-66
2021/11/01 03:59:13;;;;;;;50.90;24.25;;;;;;;3.89;75.31;100885.75;1753776;80;21179;-65
2021/11/01 04:01:43;;;;;;;55.85;27.30;;;;;;;3.90;75.39;100878.00;1779466;80;21086;-65
2021/11/01 04:04:16;;;;;;;55.67;25.90;;;;;;;3.94;75.62;100884.85;1779535;80;21237;-65
2021/11/01 04:06:46;;;;;;;49.65;26.00;;;;;;;4.01;75.79;100886.48;1779421;80;21126;-65
2021/11/01 04:09:16;;;;;;;52.90;26.48;;;;;;;4.00;75.73;100881.56;1779568;80;21609;-64
2021/11/01 04:11:49;;;;;;;53.48;25.62;;;;;;;4.00;75.76;100876.64;1779359;80;21712;-64
2021/11/01 04:14:19;;;;;;;50.00;26.35;;;;;;;4.00;75.70;100872.58;1781172;79;21154;-66
2021/11/01 04:16:52;;;;;;;55.70;25.50;;;;;;;4.02;75.73;100870.58;1793530;80;21611;-65
2021/11/01 04:21:47;;;;;;;54.35;26.35;;;;;;;4.00;75.41;100863.09;1793466;80;21577;-65
2021/11/01 04:24:20;;;;;;;58.92;26.12;;;;;;;3.98;75.41;100865.94;1793425;80;21557;-64
2021/11/01 04:26:49;;;;;;;53.17;26.07;;;;;;;3.91;75.36;100866.16;1793916;80;21656;-64
2021/11/01 04:29:18;;;;;;;58.13;26.15;;;;;;;3.87;75.44;100866.56;1793629;80;21189;-65
2021/11/01 04:31:54;;;;;;;53.80;24.87;;;;;;;3.84;75.46;100859.57;1793354;80;21165;-66
2021/11/01 04:34:30;;;;;;;50.78;24.80;;;;;;;3.81;75.51;100867.48;1792927;80;21106;-65
2021/11/01 04:36:51;;;;;;;51.40;25.08;;;;;;;3.79;75.44;100861.36;1792501;80;21149;-66
2021/11/01 04:39:35;;;;;;;52.67;25.02;;;;;;;3.79;75.35;100863.20;1793584;80;21162;-67
2021/11/01 04:53:09;;;;;;;61.23;27.50;;;;;;;3.72;75.87;100853.94;1760617;81;20156;-64
2021/11/01 04:55:36;;;;;;;63.08;27.67;;;;;;;3.72;75.82;100854.80;1793514;80;21118;-65
2021/11/01 04:58:06;;;;;;;63.85;28.30;;;;;;;3.74;75.87;100857.36;1818552;79;21156;-65
2021/11/01 05:00:34;;;;;;;53.38;25.50;;;;;;;3.74;75.89;100860.07;1791528;79;21146;-63
2021/11/01 05:05:40;;;;;;;59.98;27.15;;;;;;;3.86;76.35;100857.58;1829801;77;22125;-65
2021/11/01 05:08:10;;;;;;;56.10;25.92;;;;;;;3.82;76.10;100856.15;1788925;80;21209;-65
2021/11/01 05:10:42;;;;;;;57.35;27.95;;;;;;;3.81;75.96;100860.72;1788665;80;21126;-65
2021/11/01 05:13:24;;;;;;;59.42;27.25;;;;;;;3.77;75.88;100858.43;1788862;79;21182;-65
2021/11/01 05:16:01;;;;;;;53.75;26.17;;;;;;;3.73;75.92;100861.07;1788316;80;21111;-65
2021/11/01 05:18:29;;;;;;;57.53;27.73;;;;;;;3.71;76.02;100858.50;1787439;80;21530;-65
2021/11/01 05:23:34;;;;;;;57.35;26.95;;;;;;;3.65;76.13;100859.57;1788633;80;21687;-65
2021/11/01 05:26:03;;;;;;;63.35;28.47;;;;;;;3.70;76.37;100860.00;1788145;80;21103;-67
2021/11/01 05:31:04;;;;;;;54.60;28.75;;;;;;;3.82;76.63;100858.86;1788880;80;21649;-64
2021/11/01 05:36:20;;;;;;;63.00;29.87;;;;;;;3.86;76.77;100852.15;1788956;80;21122;-65
2021/11/01 05:38:49;;;;;;;64.37;30.25;;;;;;;3.90;76.85;100858.14;1788717;79;21155;-65
2021/11/01 05:41:18;;;;;;;64.70;30.90;;;;;;;3.97;76.95;100863.38;1788587;79;21210;-66
2021/11/01 05:43:48;;;;;;;69.00;33.20;;;;;;;4.02;76.98;100859.73;1788821;80;21213;-64
2021/11/01 05:46:17;;;;;;;69.07;33.02;;;;;;;4.05;76.93;100864.87;1788642;80;21119;-64
2021/11/01 05:48:53;;;;;;;70.40;31.35;;;;;;;4.07;76.99;100873.21;1788571;80;21135;-66
2021/11/01 05:51:23;;;;;;;61.92;30.62;;;;;;;4.11;76.97;100866.50;1788555;80;21249;-66
2021/11/01 05:53:57;;;;;;;53.73;27.17;;;;;;;4.14;76.94;100871.63;1788724;79;21159;-64
2021/11/01 06:02:06;;;;;;;51.37;25.65;;;;;;;4.25;77.16;100875.19;1788787;80;21142;-65
2021/11/01 06:04:21;;;;;;;47.58;24.57;;;;;;;4.28;77.25;100870.83;1786087;80;21618;-65
2021/11/01 06:07:16;;;;;;;53.90;24.35;;;;;;;4.32;77.33;100874.45;1788675;80;21534;-66
2021/11/01 06:09:48;;;;;;;50.33;23.75;;;;;;;4.38;77.24;100871.66;1787289;80;21181;-66
2021/11/01 06:14:52;;;;;;;52.48;23.67;;;;;;;4.46;77.16;100873.14;1788856;80;21174;-66
2021/11/01 06:17:21;;;;;;;48.48;23.47;;;;;;;4.47;77.17;100873.49;1788416;80;21216;-66
2021/11/01 06:19:50;;;;;;;62.53;32.55;;;;;;;4.48;77.25;100873.84;1788350;80;21284;-65
2021/11/01 06:22:20;;;;;;;93.82;44.60;;;;;;;4.50;77.28;100866.42;1788288;80;21180;-66
2021/11/01 06:24:58;;;;;;;71.85;32.70;;;;;;;4.54;77.29;100871.05;1788332;80;21166;-68
2021/11/01 06:27:23;;;;;;;46.28;23.80;;;;;;;4.57;77.33;100867.57;1787916;79;21581;-66
2021/11/01 06:30:00;;;;;;;70.47;34.05;;;;;;;4.61;77.38;100867.63;1788320;80;21081;-66
2021/11/01 06:32:42;;;;;;;49.25;24.63;;;;;;;4.69;77.38;100875.88;1787918;79;21139;-66
2021/11/01 06:40:58;;;;;;;46.95;25.25;;;;;;;4.86;77.17;100871.53;1788429;80;21687;-65
2021/11/01 06:57:16;;;;;;;47.83;24.75;;;;;;;5.19;76.47;100856.50;1788227;80;21115;-65
2021/11/01 07:16:33;;;;;;;52.03;25.68;;;;;;;5.57;76.30;100849.98;1774251;81;21618;-66
2021/11/01 08:25:21;;;;;;;43.60;23.15;;;;;;;9.16;64.37;100807.34;1774615;81;21495;-67
2021/11/01 08:28:35;;;;;;;44.73;24.05;;;;;;;9.17;64.62;100806.83;1772868;81;21107;-68
2021/11/01 08:38:25;;;;;;;44.50;24.55;;;;;;;9.14;64.19;100794.38;1774600;81;21605;-66
2021/11/01 08:46:29;;;;;;;50.50;27.45;;;;;;;9.17;64.57;100794.02;1774661;81;21511;-66
2021/11/01 09:18:48;;;;;;;45.78;23.38;;;;;;;9.29;64.75;100757.55;1774701;81;21546;-62
2021/11/01 09:26:37;;;;;;;51.85;25.40;;;;;;;9.47;64.67;100754.00;1762545;79;21704;-64
2021/11/01 09:29:18;;;;;;;55.45;26.87;;;;;;;9.57;64.67;100758.38;1763407;81;21639;-62
2021/11/01 09:42:49;;;;;;;46.53;23.22;;;;;;;9.77;64.29;100730.88;1725476;81;21590;-62
2021/11/01 09:45:20;;;;;;;45.55;23.07;;;;;;;9.76;64.18;100724.56;1772488;81;21607;-64
2021/11/01 09:47:52;;;;;;;43.73;24.75;;;;;;;9.79;64.18;100726.92;1751697;81;21131;-63
2021/11/01 09:50:25;;;;;;;45.35;23.83;;;;;;;9.78;64.29;100723.86;1627791;88;21123;-63
2021/11/01 09:52:58;;;;;;;41.60;23.85;;;;;;;9.81;64.36;100719.38;1627913;88;21158;-63
2021/11/01 10:00:59;;;;;;;41.73;23.25;;;;;;;9.91;64.44;100708.69;1610445;88;21216;-63
2021/11/01 10:03:39;;;;;;;43.70;22.82;;;;;;;9.94;64.27;100708.31;1673502;86;21145;-62
2021/11/01 10:06:18;;;;;;;47.90;23.75;;;;;;;9.94;64.24;100704.21;1673466;84;21150;-64
2021/11/01 10:08:50;;;;;;;44.38;23.10;;;;;;;9.99;64.27;100704.50;1715769;82;21148;-63
2021/11/01 10:11:24;;;;;;;43.45;22.32;;;;;;;10.05;64.13;100702.39;1743960;81;21196;-63
2021/11/01 10:14:05;;;;;;;43.20;22.52;;;;;;;10.10;64.11;100696.68;1733927;82;21648;-62
2021/11/01 10:19:34;;;;;;;39.83;22.42;;;;;;;10.18;64.12;100691.63;1744013;81;21097;-64
2021/11/01 10:22:06;;;;;;;41.13;21.52;;;;;;;10.22;64.08;100683.92;1744223;81;21757;-62
2021/11/01 10:24:41;;;;;;;38.20;22.13;;;;;;;10.24;64.07;100675.00;1743574;81;21155;-63
2021/11/01 10:27:16;;;;;;;46.35;22.60;;;;;;;10.26;64.16;100665.55;1743789;82;21283;-62
2021/11/01 10:30:03;;;;;;;44.80;22.20;;;;;;;10.32;64.03;100669.42;1744054;82;21208;-63
2021/11/01 10:32:44;;;;;;;43.85;21.77;;;;;;;10.33;64.01;100667.02;1752828;81;21670;-62
2021/11/01 10:35:23;;;;;;;44.13;21.48;;;;;;;10.35;64.05;100667.16;1765742;81;21151;-61
2021/11/01 11:12:02;;;;;;;36.90;19.07;;;;;;;10.75;63.67;100648.00;1673668;85;21622;-63
2021/11/01 11:14:37;;;;;;;31.10;18.23;;;;;;;10.77;63.53;100640.95;1673260;84;21138;-63
2021/11/01 11:22:32;;;;;;;37.67;19.77;;;;;;;10.78;63.50;100633.05;1672929;86;21186;-63
2021/11/01 11:25:02;;;;;;;35.90;19.45;;;;;;;10.80;63.51;100630.97;1673193;85;21238;-63
2021/11/01 11:27:55;;;;;;;39.27;20.08;;;;;;;10.84;63.48;100621.84;1683510;84;21146;-63
2021/11/01 11:47:48;;;;;;;22.75;12.50;;;;;;;10.91;63.35;100597.56;1618141;88;21348;-61
2021/11/01 11:50:25;;;;;;;30.10;16.37;;;;;;;10.92;63.23;100597.04;1657904;86;21201;-63
2021/11/01 11:52:56;;;;;;;34.63;18.35;;;;;;;10.90;63.36;100593.13;1645153;86;21100;-63
2021/11/01 11:55:28;;;;;;;35.25;18.17;;;;;;;10.93;63.35;100598.22;1608814;86;21287;-61
2021/11/01 11:58:04;;;;;;;31.60;16.97;;;;;;;10.94;63.31;100586.20;1638634;85;21183;-62
2021/11/01 12:00:35;;;;;;;32.15;17.32;;;;;;;10.94;63.18;100588.95;1618310;87;21210;-61
2021/11/01 12:03:15;;;;;;;30.62;17.95;;;;;;;10.95;63.13;100594.75;1654669;85;21642;-60
2021/11/01 12:05:52;;;;;;;31.40;16.55;;;;;;;10.93;63.15;100585.87;1657290;85;21262;-62
2021/11/01 12:08:33;;;;;;;28.47;16.73;;;;;;;10.94;63.05;100583.98;1662171;85;21270;-64
2021/11/01 12:11:18;;;;;;;32.08;17.20;;;;;;;10.95;62.95;100578.31;1636286;85;21615;-64
2021/11/01 12:19:17;;;;;;;32.10;17.48;;;;;;;10.99;62.93;100571.39;1829652;77;22153;-62
2021/11/01 12:21:51;;;;;;;33.80;18.05;;;;;;;10.97;62.73;100573.47;1724113;83;21177;-62
2021/11/01 12:24:24;;;;;;;32.40;17.03;;;;;;;10.98;62.74;100562.84;1740158;82;21269;-62
2021/11/01 12:27:06;;;;;;;29.30;17.45;;;;;;;11.00;62.65;100563.48;1723978;83;21924;-62
2021/11/01 12:29:38;;;;;;;30.70;17.42;;;;;;;11.03;62.43;100555.39;1737707;82;21567;-63
2021/11/01 12:32:12;;;;;;;29.57;17.45;;;;;;;11.03;62.38;100550.75;1724077;83;21157;-64
2021/11/01 12:35:09;;;;;;;33.40;17.48;;;;;;;11.04;62.34;100546.97;1713864;82;21116;-62
2021/11/01 12:37:45;;;;;;;30.12;16.85;;;;;;;11.05;62.39;100548.70;1730186;82;21118;-63
2021/11/01 12:42:53;;;;;;;36.98;17.37;;;;;;;11.09;62.02;100548.63;1721343;83;21130;-64
2021/11/01 12:58:59;;;;;;;28.55;15.15;;;;;;;11.06;62.08;100549.55;1652466;87;20221;-63
2021/11/01 13:01:29;;;;;;;30.17;15.85;;;;;;;11.02;62.04;100546.31;1701327;83;21268;-62
2021/11/01 13:04:26;;;;;;;32.73;17.30;;;;;;;11.03;62.04;100539.79;1721109;83;21162;-63
2021/11/01 13:09:34;;;;;;;28.38;16.02;;;;;;;11.02;62.20;100527.12;1674233;83;21159;-62
2021/11/01 13:15:06;;;;;;;31.57;16.70;;;;;;;11.04;62.27;100528.30;1697859;83;21538;-63
2021/11/01 13:20:23;;;;;;;33.53;16.15;;;;;;;11.03;62.23;100526.08;1744551;82;21092;-63
2021/11/01 13:22:57;;;;;;;42.45;17.98;;;;;;;11.03;62.28;100528.81;1744374;82;21559;-63
2021/11/01 13:37:38;;;;;;;32.88;17.37;;;;;;;11.03;62.65;100508.78;1744167;82;21123;-61
2021/11/01 13:39:46;;;;;;;30.02;15.83;;;;;;;11.00;62.73;100503.69;1736644;82;21151;-63
2021/11/01 13:42:17;;;;;;;29.42;16.62;;;;;;;11.00;62.79;100502.32;1744140;82;21591;-64
2021/11/01 13:44:48;;;;;;;29.77;15.70;;;;;;;10.98;62.84;100504.41;1744025;82;21198;-63
2021/11/01 13:47:17;;;;;;;28.75;15.30;;;;;;;10.94;62.90;100497.11;1743704;81;21178;-64
2021/11/01 13:49:49;;;;;;;31.55;16.10;;;;;;;10.92;62.99;100499.72;1743845;82;21131;-62
2021/11/01 13:55:00;;;;;;;31.90;16.25;;;;;;;10.85;63.30;100509.25;1743842;82;21296;-61
2021/11/01 13:57:27;;;;;;;33.28;16.80;;;;;;;10.81;63.49;100507.95;1755694;79;21577;-63
2021/11/01 14:13:34;;;;;;;;;;;;;;;10.58;64.66;100497.72;1777178;81;21139;-63
2021/11/01 14:16:16;;;;;;;29.85;16.17;;;;;;;10.56;64.70;100505.28;1786909;80;20229;-62
2021/11/01 14:18:42;;;;;;;30.35;15.80;;;;;;;10.53;64.74;100501.05;1760610;81;21500;-64
2021/11/01 15:01:26;;;;;;;29.87;15.50;;;;;;;9.84;67.02;100492.38;1750544;80;21630;-62
2021/11/01 15:17:00;;;;;;;32.80;16.97;;;;;;;9.58;68.30;100490.11;1743604;82;21353;-64
2021/11/01 15:19:42;;;;;;;29.92;16.17;;;;;;;9.52;68.66;100492.23;1751023;81;21492;-66
2021/11/01 15:24:42;;;;;;;27.32;15.58;;;;;;;9.40;69.17;100500.58;1756243;80;21122;-65
2021/11/01 15:31:00;;;;;;;27.67;15.15;;;;;;;9.34;69.43;100504.91;1756855;81;21135;-63
2021/11/01 16:16:43;;;;;;;32.67;16.55;;;;;;;9.09;71.02;100510.27;1788890;80;21101;-64
2021/11/01 16:18:50;;;;;;;28.00;15.72;;;;;;;9.07;70.99;100507.72;1762670;80;21114;-63
2021/11/01 16:21:21;;;;;;;32.45;16.65;;;;;;;9.07;71.01;100506.34;1779914;80;21200;-63
2021/11/01 16:23:50;;;;;;;29.05;16.62;;;;;;;9.09;71.04;100504.27;1779982;80;21614;-64
2021/11/01 16:26:23;;;;;;;28.38;15.75;;;;;;;9.12;71.09;100499.84;1779875;80;21212;-61
2021/11/01 16:28:53;;;;;;;30.05;16.25;;;;;;;9.13;71.01;100504.27;1780033;80;21165;-65
2021/11/01 16:34:01;;;;;;;30.95;16.42;;;;;;;9.11;71.08;100509.59;1771980;80;21580;-63
2021/11/01 16:39:26;;;;;;;35.90;18.07;;;;;;;9.09;71.31;100515.73;1719920;82;21204;-63
2021/11/01 16:41:57;;;;;;;32.98;16.90;;;;;;;9.14;71.25;100515.53;1749347;82;21797;-63
2021/11/01 16:44:30;;;;;;;34.27;18.15;;;;;;;9.16;71.19;100518.94;1749237;82;21656;-62
2021/11/01 16:46:59;;;;;;;36.93;18.42;;;;;;;9.14;71.15;100510.06;1749133;82;21242;-62
2021/11/01 16:49:30;;;;;;;29.48;16.62;;;;;;;9.14;71.12;100509.22;1749214;82;21142;-63
2021/11/01 16:52:09;;;;;;;33.83;18.00;;;;;;;9.12;71.11;100516.23;1720677;82;21565;-62
2021/11/01 16:54:32;;;;;;;34.23;17.82;;;;;;;9.11;71.07;100507.70;1747792;82;21103;-63
2021/11/01 16:59:58;;;;;;;34.40;18.20;;;;;;;9.13;71.06;100519.30;1749081;82;21141;-62
2021/11/01 17:02:45;;;;;;;33.80;19.02;;;;;;;9.14;71.07;100516.05;1749358;82;21637;-65
2021/11/01 17:05:29;;;;;;;30.52;16.90;;;;;;;9.16;71.05;100509.36;1748897;82;21506;-65
2021/11/01 17:30:15;;;;;;;31.73;15.48;;;;;;;9.06;71.43;100481.41;1630460;86;21713;-64
2021/11/01 17:34:45;;;;;;;33.23;16.57;;;;;;;9.04;71.71;100480.75;1660444;84;21214;-63
2021/11/01 17:35:53;;;;;;;31.23;16.60;;;;;;;9.05;71.62;100478.87;1733582;82;21107;-62
2021/11/01 18:45:40;;;;;;;30.75;16.93;;;;;;;8.82;72.13;100436.56;1770487;79;21078;-65
2021/11/01 18:50:53;;;;;;;34.80;18.60;;;;;;;8.82;72.04;100429.22;1770843;80;21576;-67
2021/11/01 18:53:18;;;;;;;37.58;19.82;;;;;;;8.84;72.02;100427.66;1769842;79;21118;-67
2021/11/01 18:55:52;;;;;;;31.87;18.20;;;;;;;8.85;71.95;100429.36;1770436;80;21153;-67
2021/11/01 18:58:24;;;;;;;39.98;19.25;;;;;;;8.84;71.80;100424.41;1770383;79;21126;-66
2021/11/01 19:00:57;;;;;;;32.25;17.62;;;;;;;8.82;71.71;100428.38;1770508;81;21110;-66
2021/11/01 19:03:30;;;;;;;33.88;18.50;;;;;;;8.80;71.67;100424.98;1770151;81;21573;-67
2021/11/01 19:08:54;;;;;;;;;;;;;;;8.79;71.65;100426.01;1772972;79;21094;-66
2021/11/01 20:05:13;;;;;;;47.48;22.10;;;;;;;8.52;71.50;100396.05;1770573;79;21241;-66
2021/11/01 20:13:40;;;;;;;46.40;24.92;;;;;;;8.44;71.48;100386.02;1770407;80;21083;-65
2021/11/01 21:26:23;;;;;;;63.92;32.93;;;;;;;7.99;72.15;100342.36;1759695;81;21534;-65
2021/11/01 21:28:53;;;;;;;69.65;35.13;;;;;;;8.00;72.21;100344.06;1759546;81;21123;-66
2021/11/01 21:31:21;;;;;;;68.62;36.98;;;;;;;8.00;72.16;100335.36;1759306;80;21153;-66
2021/11/01 21:33:54;;;;;;;59.80;31.55;;;;;;;8.03;72.11;100342.33;1759410;81;21546;-65
2021/11/01 21:36:24;;;;;;;63.92;32.48;;;;;;;8.02;72.02;100333.81;1740849;81;21126;-64
2021/11/01 21:38:56;;;;;;;61.88;32.73;;;;;;;7.98;71.99;100338.78;1759397;81;21234;-66
2021/11/01 21:41:27;;;;;;;59.40;30.43;;;;;;;7.97;71.99;100330.78;1759399;80;21598;-65
2021/11/01 21:43:55;;;;;;;56.75;30.20;;;;;;;7.97;71.96;100337.09;1759479;80;21304;-66
2021/11/01 21:46:25;;;;;;;54.95;29.82;;;;;;;7.93;71.84;100329.78;1759678;81;21538;-66
2021/11/01 21:48:54;;;;;;;52.23;29.75;;;;;;;7.90;71.91;100336.12;1759664;80;21106;-68
2021/11/01 21:51:25;;;;;;;58.50;29.50;;;;;;;7.87;71.92;100334.60;1759385;81;21553;-66
2021/11/01 21:54:07;;;;;;;56.60;30.30;;;;;;;7.85;71.97;100328.48;1759625;81;21114;-65
2021/11/01 21:56:30;;;;;;;53.20;29.80;;;;;;;7.83;71.99;100323.72;1758182;81;21562;-66
2021/11/01 21:59:19;;;;;;;60.28;30.50;;;;;;;7.83;72.01;100324.23;1759348;80;21237;-66
2021/11/01 22:09:39;;;;;;;61.85;31.10;;;;;;;7.84;71.95;100329.52;1758267;81;21188;-65
2021/11/01 22:10:03;;;;;;;56.75;30.72;;;;;;;7.79;71.89;100325.09;1759601;81;21612;-65
2021/11/01 22:18:12;;;;;;;58.35;29.90;;;;;;;7.72;72.06;100315.93;1759393;80;21197;-64
2021/11/01 22:20:43;;;;;;;57.70;30.57;;;;;;;7.73;72.04;100316.27;1762383;81;21604;-67
2021/11/01 22:23:13;;;;;;;59.80;30.57;;;;;;;7.73;72.01;100301.78;1770192;81;21579;-65
2021/11/01 22:39:42;;;;;;;60.90;31.60;;;;;;;7.58;72.08;100288.08;1770103;80;21580;-66
2021/11/01 22:58:28;;;;;;;60.25;31.42;;;;;;;7.43;72.51;100280.34;1770483;81;21086;-65
2021/11/01 23:01:01;;;;;;;58.42;30.60;;;;;;;7.42;72.53;100277.29;1770334;81;21133;-64
2021/11/01 23:03:45;;;;;;;63.05;32.67;;;;;;;7.41;72.50;100284.62;1770547;81;21165;-65
2021/11/01 23:34:05;;;;;;;65.78;32.05;;;;;;;7.41;72.80;100246.97;1571228;90;21176;-66
2021/11/01 23:36:38;;;;;;;59.00;30.17;;;;;;;7.41;72.74;100251.06;1571219;91;21133;-67
2021/11/01 23:39:11;;;;;;;62.65;32.78;;;;;;;7.38;72.74;100244.61;1571221;90;21132;-65
2021/11/01 23:41:47;;;;;;;59.13;30.12;;;;;;;7.38;72.75;100237.28;1641342;87;21473;-65
2021/11/01 23:44:19;;;;;;;64.87;31.30;;;;;;;7.40;72.77;100234.38;1656113;87;21183;-65
2021/11/01 23:46:50;;;;;;;58.02;31.00;;;;;;;7.42;72.76;100236.41;1655841;85;21233;-65
2021/11/01 23:49:19;;;;;;;59.13;32.00;;;;;;;7.45;72.73;100225.14;1655839;87;21321;-67